createdAt,value
2018-05-08T00:00:03.767Z,800.6
2018-05-08T00:00:08.050Z,800.61
2018-05-08T00:00:12.262Z,800.58
2018-05-08T00:00:16.472Z,800.57
2018-05-08T00:00:20.681Z,800.59
2018-05-08T00:00:24.994Z,800.53
2018-05-08T00:00:29.093Z,800.53
2018-05-08T00:00:33.411Z,800.56
2018-05-08T00:00:37.621Z,800.57
2018-05-08T00:00:41.730Z,800.54
2018-05-08T00:00:45.953Z,800.55
2018-05-08T00:00:50.195Z,800.54
2018-05-08T00:00:54.512Z,800.56
2018-05-08T00:00:58.726Z,800.54
2018-05-08T00:01:02.932Z,800.55
2018-05-08T00:01:07.142Z,800.52
2018-05-08T00:01:11.461Z,800.54
2018-05-08T00:01:15.777Z,800.5
2018-05-08T00:01:20.094Z,800.5
2018-05-08T00:01:24.420Z,800.54
2018-05-08T00:01:28.737Z,800.51
2018-05-08T00:01:33.058Z,800.53
2018-05-08T00:01:37.385Z,800.5
2018-05-08T00:01:41.488Z,800.49
2018-05-08T00:01:45.715Z,800.5
2018-05-08T00:01:49.921Z,800.52
2018-05-08T00:01:54.136Z,800.51
2018-05-08T00:01:58.454Z,800.49
2018-05-08T00:02:02.781Z,800.5
2018-05-08T00:02:06.905Z,800.49
2018-05-08T00:02:11.135Z,800.51
2018-05-08T00:02:15.343Z,800.5
2018-05-08T00:02:19.679Z,800.5
2018-05-08T00:02:23.889Z,800.47
2018-05-08T00:02:28.204Z,800.49
2018-05-08T00:02:32.416Z,800.5
2018-05-08T00:02:36.510Z,800.5
2018-05-08T00:02:40.715Z,800.45
2018-05-08T00:02:44.934Z,800.45
2018-05-08T00:02:49.152Z,800.45
2018-05-08T00:02:53.469Z,800.46
2018-05-08T00:02:57.678Z,800.42
2018-05-08T00:03:01.770Z,800.4
2018-05-08T00:03:05.987Z,800.4
2018-05-08T00:03:10.001Z,800.45
2018-05-08T00:03:14.080Z,800.44
2018-05-08T00:03:18.287Z,800.44
2018-05-08T00:03:22.393Z,800.45
2018-05-08T00:03:26.495Z,800.43
2018-05-08T00:03:30.823Z,800.43
2018-05-08T00:03:35.034Z,800.44
2018-05-08T00:03:39.137Z,800.43
2018-05-08T00:03:43.244Z,800.43
2018-05-08T00:03:47.454Z,800.4
2018-05-08T00:03:51.678Z,800.4
2018-05-08T00:03:55.889Z,800.4
2018-05-08T00:04:00.210Z,800.4
2018-05-08T00:04:04.320Z,800.4
2018-05-08T00:04:08.424Z,800.4
2018-05-08T00:04:12.630Z,800.42
2018-05-08T00:04:16.843Z,800.37
2018-05-08T00:04:21.063Z,800.32
2018-05-08T00:04:25.279Z,800.36
2018-05-08T00:04:29.272Z,800.34
2018-05-08T00:04:33.475Z,800.36
2018-05-08T00:04:37.789Z,800.32
2018-05-08T00:04:41.689Z,800.35
2018-05-08T00:04:45.895Z,800.34
2018-05-08T00:04:50.105Z,800.35
2018-05-08T00:04:54.204Z,800.35
2018-05-08T00:04:58.411Z,800.35
2018-05-08T00:05:02.681Z,800.33
2018-05-08T00:05:06.885Z,800.34
2018-05-08T00:05:10.893Z,800.35
2018-05-08T00:05:15.219Z,800.33
2018-05-08T00:05:19.539Z,800.33
2018-05-08T00:05:23.743Z,800.34
2018-05-08T00:05:27.956Z,800.3
2018-05-08T00:05:32.172Z,800.31
2018-05-08T00:05:36.491Z,800.31
2018-05-08T00:05:40.699Z,800.34
2018-05-08T00:05:44.812Z,800.31
2018-05-08T00:05:49.136Z,800.29
2018-05-08T00:05:53.344Z,800.29
2018-05-08T00:05:57.678Z,800.28
2018-05-08T00:06:02.047Z,800.3
2018-05-08T00:06:06.256Z,800.27
2018-05-08T00:06:10.352Z,800.25
2018-05-08T00:06:14.564Z,800.25
2018-05-08T00:06:18.779Z,800.24
2018-05-08T00:06:23.000Z,800.27
2018-05-08T00:06:27.328Z,800.24
2018-05-08T00:06:31.552Z,800.25
2018-05-08T00:06:35.758Z,800.25
2018-05-08T00:06:40.070Z,800.22
2018-05-08T00:06:44.307Z,800.22
2018-05-08T00:06:48.511Z,800.23
2018-05-08T00:06:52.729Z,800.23
2018-05-08T00:06:56.936Z,800.21
2018-05-08T00:07:01.150Z,800.22
2018-05-08T00:07:05.314Z,800.23
2018-05-08T00:07:09.314Z,800.24
2018-05-08T00:07:13.519Z,800.2
2018-05-08T00:07:17.624Z,800.19
2018-05-08T00:07:21.949Z,800.21
2018-05-08T00:07:26.049Z,800.21
2018-05-08T00:07:30.262Z,800.18
2018-05-08T00:07:34.477Z,800.19
2018-05-08T00:07:38.687Z,800.18
2018-05-08T00:07:42.891Z,800.18
2018-05-08T00:07:47.112Z,800.17
2018-05-08T00:07:51.319Z,800.17
2018-05-08T00:07:55.526Z,800.15
2018-05-08T00:07:59.735Z,800.19
2018-05-08T00:08:04.048Z,800.14
2018-05-08T00:08:08.169Z,800.12
2018-05-08T00:08:12.280Z,800.15
2018-05-08T00:08:16.600Z,800.15
2018-05-08T00:08:20.913Z,800.1
2018-05-08T00:08:25.128Z,800.11
2018-05-08T00:08:29.331Z,800.12
2018-05-08T00:08:33.536Z,800.13
2018-05-08T00:08:37.637Z,800.12
2018-05-08T00:08:41.844Z,800.13
2018-05-08T00:08:45.621Z,800.11
2018-05-08T00:08:50.414Z,800.08
2018-05-08T00:08:54.990Z,800.09
2018-05-08T00:08:59.759Z,800.13
2018-05-08T00:09:03.865Z,800.07
2018-05-08T00:09:07.968Z,800.08
2018-05-08T00:09:12.073Z,800.08
2018-05-08T00:09:16.284Z,800.07
2018-05-08T00:09:20.391Z,800.1
2018-05-08T00:09:24.606Z,800.04
2018-05-08T00:09:28.604Z,800.08
2018-05-08T00:09:32.814Z,800.05
2018-05-08T00:09:36.929Z,800.07
2018-05-08T00:09:41.029Z,800.04
2018-05-08T00:09:45.353Z,800.05
2018-05-08T00:09:49.343Z,800.02
2018-05-08T00:09:53.440Z,800.05
2018-05-08T00:09:57.754Z,800.04
2018-05-08T00:10:02.068Z,800
2018-05-08T00:10:06.201Z,800.04
2018-05-08T00:10:10.520Z,800.04
2018-05-08T00:10:14.742Z,800.02
2018-05-08T00:10:18.839Z,800.01
2018-05-08T00:10:23.166Z,800.02
2018-05-08T00:10:27.270Z,800.04
2018-05-08T00:10:31.370Z,800.02
2018-05-08T00:10:35.692Z,800.04
2018-05-08T00:10:39.898Z,799.99
2018-05-08T00:10:43.894Z,800.01
2018-05-08T00:10:47.887Z,800.01
2018-05-08T00:10:52.207Z,800.01
2018-05-08T00:10:56.528Z,800.02
2018-05-08T00:11:00.632Z,799.98
2018-05-08T00:11:04.743Z,800.02
2018-05-08T00:11:08.962Z,800.01
2018-05-08T00:11:12.955Z,799.99
2018-05-08T00:11:17.063Z,800.01
2018-05-08T00:11:21.299Z,799.98
2018-05-08T00:11:25.508Z,799.97
2018-05-08T00:11:29.715Z,799.99
2018-05-08T00:11:34.027Z,799.97
2018-05-08T00:11:38.311Z,800
2018-05-08T00:11:42.626Z,799.94
2018-05-08T00:11:46.736Z,799.91
2018-05-08T00:11:50.844Z,799.97
2018-05-08T00:11:55.166Z,799.95
2018-05-08T00:11:59.485Z,799.97
2018-05-08T00:12:03.806Z,799.96
2018-05-08T00:12:08.130Z,799.97
2018-05-08T00:12:12.348Z,799.91
2018-05-08T00:12:16.463Z,799.94
2018-05-08T00:12:20.670Z,799.92
2018-05-08T00:12:24.878Z,799.94
2018-05-08T00:12:29.198Z,799.94
2018-05-08T00:12:33.529Z,799.85
2018-05-08T00:12:37.744Z,799.87
2018-05-08T00:12:42.068Z,799.97
2018-05-08T00:12:46.288Z,799.89
2018-05-08T00:12:50.505Z,799.95
2018-05-08T00:12:54.818Z,799.89
2018-05-08T00:12:59.025Z,799.87
2018-05-08T00:13:03.037Z,799.89
2018-05-08T00:13:07.049Z,799.88
2018-05-08T00:13:11.148Z,799.89
2018-05-08T00:13:15.253Z,799.84
2018-05-08T00:13:19.580Z,799.86
2018-05-08T00:13:23.908Z,799.87
2018-05-08T00:13:28.007Z,799.89
2018-05-08T00:13:32.321Z,799.89
2018-05-08T00:13:36.526Z,799.85
2018-05-08T00:13:40.850Z,799.81
2018-05-08T00:13:45.165Z,799.86
2018-05-08T00:13:49.373Z,799.84
2018-05-08T00:13:53.472Z,799.84
2018-05-08T00:13:57.677Z,799.8
2018-05-08T00:14:01.889Z,799.84
2018-05-08T00:14:06.251Z,799.84
2018-05-08T00:14:10.354Z,799.74
2018-05-08T00:14:14.575Z,799.81
2018-05-08T00:14:18.791Z,799.8
2018-05-08T00:14:23.101Z,799.8
2018-05-08T00:14:27.430Z,799.79
2018-05-08T00:14:31.742Z,799.76
2018-05-08T00:14:35.955Z,799.75
2018-05-08T00:14:40.166Z,799.76
2018-05-08T00:14:44.500Z,799.78
2018-05-08T00:14:48.818Z,799.8
2018-05-08T00:14:53.033Z,799.78
2018-05-08T00:14:57.377Z,799.77
2018-05-08T00:15:01.691Z,799.76
2018-05-08T00:15:05.910Z,799.76
2018-05-08T00:15:10.226Z,799.73
2018-05-08T00:15:14.451Z,799.76
2018-05-08T00:15:18.554Z,799.74
2018-05-08T00:15:22.654Z,799.75
2018-05-08T00:15:26.763Z,799.72
2018-05-08T00:15:31.078Z,799.75
2018-05-08T00:15:35.395Z,799.69
2018-05-08T00:15:39.600Z,799.71
2018-05-08T00:15:43.926Z,799.72
2018-05-08T00:15:48.150Z,799.75
2018-05-08T00:15:52.357Z,799.73
2018-05-08T00:15:56.683Z,799.75
2018-05-08T00:16:00.970Z,799.73
2018-05-08T00:16:05.073Z,799.68
2018-05-08T00:16:09.176Z,799.66
2018-05-08T00:16:13.392Z,799.69
2018-05-08T00:16:17.604Z,799.71
2018-05-08T00:16:21.830Z,799.7
2018-05-08T00:16:26.153Z,799.67
2018-05-08T00:16:30.154Z,799.7
2018-05-08T00:16:34.149Z,799.68
2018-05-08T00:16:38.371Z,799.65
2018-05-08T00:16:42.548Z,799.69
2018-05-08T00:16:46.865Z,799.68
2018-05-08T00:16:51.080Z,799.65
2018-05-08T00:16:55.193Z,799.68
2018-05-08T00:16:59.399Z,799.67
2018-05-08T00:17:03.610Z,799.69
2018-05-08T00:17:07.828Z,799.68
2018-05-08T00:17:12.036Z,799.69
2018-05-08T00:17:16.351Z,799.68
2018-05-08T00:17:20.669Z,799.68
2018-05-08T00:17:24.985Z,799.68
2018-05-08T00:17:29.298Z,799.68
2018-05-08T00:17:33.628Z,799.68
2018-05-08T00:17:37.853Z,799.64
2018-05-08T00:17:42.190Z,799.64
2018-05-08T00:17:46.458Z,799.64
2018-05-08T00:17:50.665Z,799.62
2018-05-08T00:17:54.762Z,799.63
2018-05-08T00:17:58.867Z,799.62
2018-05-08T00:18:03.202Z,799.62
2018-05-08T00:18:07.448Z,799.63
2018-05-08T00:18:11.655Z,799.63
2018-05-08T00:18:15.538Z,799.63
2018-05-08T00:18:19.902Z,799.61
2018-05-08T00:18:24.216Z,799.6
2018-05-08T00:18:28.419Z,799.59
2018-05-08T00:18:32.621Z,799.61
2018-05-08T00:18:36.938Z,799.6
2018-05-08T00:18:41.144Z,799.6
2018-05-08T00:18:45.250Z,799.63
2018-05-08T00:18:49.458Z,799.59
2018-05-08T00:18:53.676Z,799.61
2018-05-08T00:18:57.993Z,799.58
2018-05-08T00:19:02.216Z,799.58
2018-05-08T00:19:06.101Z,799.62
2018-05-08T00:19:10.333Z,799.57
2018-05-08T00:19:14.659Z,799.57
2018-05-08T00:19:18.755Z,799.59
2018-05-08T00:19:23.076Z,799.61
2018-05-08T00:19:27.296Z,799.57
2018-05-08T00:19:31.622Z,799.58
2018-05-08T00:19:35.719Z,799.58
2018-05-08T00:19:39.946Z,799.59
2018-05-08T00:19:44.165Z,799.59
2018-05-08T00:19:48.266Z,799.56
2018-05-08T00:19:52.587Z,799.49
2018-05-08T00:19:56.796Z,799.53
2018-05-08T00:20:01.006Z,799.53
2018-05-08T00:20:05.083Z,799.55
2018-05-08T00:20:09.083Z,799.57
2018-05-08T00:20:13.187Z,799.57
2018-05-08T00:20:17.399Z,799.53
2018-05-08T00:20:21.612Z,799.55
2018-05-08T00:20:25.830Z,799.51
2018-05-08T00:20:30.039Z,799.55
2018-05-08T00:20:34.370Z,799.53
2018-05-08T00:20:38.578Z,799.5
2018-05-08T00:20:42.927Z,799.52
2018-05-08T00:20:47.142Z,799.55
2018-05-08T00:20:51.348Z,799.52
2018-05-08T00:20:55.665Z,799.5
2018-05-08T00:20:59.659Z,799.49
2018-05-08T00:21:03.866Z,799.51
2018-05-08T00:21:08.089Z,799.46
2018-05-08T00:21:12.305Z,799.47
2018-05-08T00:21:16.618Z,799.48
2018-05-08T00:21:20.830Z,799.42
2018-05-08T00:21:25.042Z,799.4
2018-05-08T00:21:29.356Z,799.49
2018-05-08T00:21:33.564Z,799.46
2018-05-08T00:21:37.886Z,799.47
2018-05-08T00:21:42.201Z,799.46
2018-05-08T00:21:46.407Z,799.47
2018-05-08T00:21:50.606Z,799.43
2018-05-08T00:21:54.706Z,799.4
2018-05-08T00:21:58.809Z,799.45
2018-05-08T00:22:02.907Z,799.43
2018-05-08T00:22:07.230Z,799.4
2018-05-08T00:22:11.544Z,799.38
2018-05-08T00:22:15.427Z,799.4
2018-05-08T00:22:19.635Z,799.39
2018-05-08T00:22:23.730Z,799.38
2018-05-08T00:22:28.120Z,799.41
2018-05-08T00:22:32.337Z,799.39
2018-05-08T00:22:36.551Z,799.41
2018-05-08T00:22:40.865Z,799.4
2018-05-08T00:22:44.970Z,799.38
2018-05-08T00:22:49.293Z,799.38
2018-05-08T00:22:53.500Z,799.35
2018-05-08T00:22:57.707Z,799.37
2018-05-08T00:23:02.056Z,799.36
2018-05-08T00:23:06.115Z,799.36
2018-05-08T00:23:10.333Z,799.34
2018-05-08T00:23:14.563Z,799.37
2018-05-08T00:23:18.447Z,799.35
2018-05-08T00:23:22.775Z,799.38
2018-05-08T00:23:26.988Z,799.36
2018-05-08T00:23:31.210Z,799.34
2018-05-08T00:23:35.424Z,799.4
2018-05-08T00:23:39.743Z,799.36
2018-05-08T00:23:43.950Z,799.35
2018-05-08T00:23:47.835Z,799.34
2018-05-08T00:23:52.049Z,799.31
2018-05-08T00:23:56.251Z,799.29
2018-05-08T00:24:00.361Z,799.3
2018-05-08T00:24:04.723Z,799.35
2018-05-08T00:24:08.821Z,799.28
2018-05-08T00:24:13.145Z,799.36
2018-05-08T00:24:17.363Z,799.33
2018-05-08T00:24:21.567Z,799.35
2018-05-08T00:24:25.563Z,799.34
2018-05-08T00:24:29.770Z,799.31
2018-05-08T00:24:34.085Z,799.3
2018-05-08T00:24:38.293Z,799.31
2018-05-08T00:24:42.465Z,799.29
2018-05-08T00:24:46.782Z,799.27
2018-05-08T00:24:50.985Z,799.32
2018-05-08T00:24:55.089Z,799.29
2018-05-08T00:24:59.298Z,799.33
2018-05-08T00:25:03.305Z,799.33
2018-05-08T00:25:07.530Z,799.34
2018-05-08T00:25:11.741Z,799.36
2018-05-08T00:25:16.059Z,799.35
2018-05-08T00:25:20.268Z,799.31
2018-05-08T00:25:24.363Z,799.25
2018-05-08T00:25:28.567Z,799.27
2018-05-08T00:25:32.557Z,799.31
2018-05-08T00:25:36.664Z,799.31
2018-05-08T00:25:40.884Z,799.3
2018-05-08T00:25:44.995Z,799.3
2018-05-08T00:25:49.097Z,799.28
2018-05-08T00:25:53.306Z,799.3
2018-05-08T00:25:57.527Z,799.28
2018-05-08T00:26:01.731Z,799.3
2018-05-08T00:26:05.838Z,799.29
2018-05-08T00:26:10.048Z,799.26
2018-05-08T00:26:14.268Z,799.24
2018-05-08T00:26:18.369Z,799.22
2018-05-08T00:26:22.685Z,799.26
2018-05-08T00:26:26.999Z,799.26
2018-05-08T00:26:31.204Z,799.28
2018-05-08T00:26:35.414Z,799.29
2018-05-08T00:26:39.639Z,799.28
2018-05-08T00:26:43.740Z,799.28
2018-05-08T00:26:48.055Z,799.26
2018-05-08T00:26:52.168Z,799.25
2018-05-08T00:26:56.466Z,799.24
2018-05-08T00:27:00.678Z,799.26
2018-05-08T00:27:04.828Z,799.26
2018-05-08T00:27:08.934Z,799.25
2018-05-08T00:27:13.257Z,799.27
2018-05-08T00:27:17.364Z,799.29
2018-05-08T00:27:21.571Z,799.23
2018-05-08T00:27:25.672Z,799.24
2018-05-08T00:27:29.777Z,799.24
2018-05-08T00:27:34.177Z,799.26
2018-05-08T00:27:38.495Z,799.22
2018-05-08T00:27:42.698Z,799.21
2018-05-08T00:27:46.908Z,799.24
2018-05-08T00:27:51.121Z,799.23
2018-05-08T00:27:55.446Z,799.26
2018-05-08T00:27:59.657Z,799.19
2018-05-08T00:28:03.858Z,799.22
2018-05-08T00:28:08.154Z,799.22
2018-05-08T00:28:12.261Z,799.24
2018-05-08T00:28:16.478Z,799.21
2018-05-08T00:28:20.811Z,799.21
2018-05-08T00:28:25.123Z,799.2
2018-05-08T00:28:29.329Z,799.22
2018-05-08T00:28:33.542Z,799.21
2018-05-08T00:28:37.756Z,799.18
2018-05-08T00:28:42.081Z,799.21
2018-05-08T00:28:46.289Z,799.21
2018-05-08T00:28:50.397Z,799.22
2018-05-08T00:28:54.496Z,799.17
2018-05-08T00:28:58.713Z,799.14
2018-05-08T00:29:02.813Z,799.21
2018-05-08T00:29:06.921Z,799.22
2018-05-08T00:29:11.149Z,799.22
2018-05-08T00:29:15.246Z,799.23
2018-05-08T00:29:19.357Z,799.16
2018-05-08T00:29:23.679Z,799.15
2018-05-08T00:29:27.884Z,799.22
2018-05-08T00:29:31.875Z,799.18
2018-05-08T00:29:35.979Z,799.19
2018-05-08T00:29:40.082Z,799.2
2018-05-08T00:29:44.194Z,799.18
2018-05-08T00:29:48.515Z,799.17
2018-05-08T00:29:52.721Z,799.19
2018-05-08T00:29:56.980Z,799.19
2018-05-08T00:30:01.296Z,799.15
2018-05-08T00:30:05.187Z,799.21
2018-05-08T00:30:09.519Z,799.15
2018-05-08T00:30:13.861Z,799.2
2018-05-08T00:30:18.188Z,799.16
2018-05-08T00:30:22.506Z,799.15
2018-05-08T00:30:26.827Z,799.14
2018-05-08T00:30:31.040Z,799.14
2018-05-08T00:30:35.367Z,799.18
2018-05-08T00:30:39.579Z,799.15
2018-05-08T00:30:43.888Z,799.17
2018-05-08T00:30:47.985Z,799.16
2018-05-08T00:30:52.084Z,799.18
2018-05-08T00:30:56.291Z,799.16
2018-05-08T00:31:00.521Z,799.16
2018-05-08T00:31:04.631Z,799.18
2018-05-08T00:31:08.955Z,799.15
2018-05-08T00:31:13.203Z,799.13
2018-05-08T00:31:17.332Z,799.15
2018-05-08T00:31:21.539Z,799.16
2018-05-08T00:31:25.742Z,799.12
2018-05-08T00:31:29.840Z,799.15
2018-05-08T00:31:33.945Z,799.16
2018-05-08T00:31:38.163Z,799.17
2018-05-08T00:31:42.371Z,799.17
2018-05-08T00:31:46.687Z,799.16
2018-05-08T00:31:51.004Z,799.13
2018-05-08T00:31:55.217Z,799.16
2018-05-08T00:31:59.540Z,799.18
2018-05-08T00:32:03.855Z,799.17
2018-05-08T00:32:07.954Z,799.14
2018-05-08T00:32:12.057Z,799.17
2018-05-08T00:32:16.266Z,799.15
2018-05-08T00:32:20.424Z,799.14
2018-05-08T00:32:24.746Z,799.14
2018-05-08T00:32:28.949Z,799.17
2018-05-08T00:32:33.160Z,799.13
2018-05-08T00:32:37.480Z,799.14
2018-05-08T00:32:41.685Z,799.14
2018-05-08T00:32:45.787Z,799.14
2018-05-08T00:32:49.893Z,799.14
2018-05-08T00:32:54.208Z,799.15
2018-05-08T00:32:58.419Z,799.15
2018-05-08T00:33:02.790Z,799.15
2018-05-08T00:33:06.782Z,799.15
2018-05-08T00:33:10.992Z,799.15
2018-05-08T00:33:15.201Z,799.14
2018-05-08T00:33:19.512Z,799.14
2018-05-08T00:33:23.820Z,799.13
2018-05-08T00:33:27.928Z,799.13
2018-05-08T00:33:32.136Z,799.14
2018-05-08T00:33:36.344Z,799.14
2018-05-08T00:33:40.733Z,799.12
2018-05-08T00:33:44.843Z,799.13
2018-05-08T00:33:49.060Z,799.12
2018-05-08T00:33:53.374Z,799.13
2018-05-08T00:33:57.581Z,799.1
2018-05-08T00:34:01.910Z,799.09
2018-05-08T00:34:06.019Z,799.11
2018-05-08T00:34:10.226Z,799.1
2018-05-08T00:34:14.432Z,799.13
2018-05-08T00:34:18.752Z,799.1
2018-05-08T00:34:23.119Z,799.11
2018-05-08T00:34:27.330Z,799.1
2018-05-08T00:34:31.548Z,799.06
2018-05-08T00:34:35.646Z,799.08
2018-05-08T00:34:39.970Z,799.09
2018-05-08T00:34:43.954Z,799.13
2018-05-08T00:34:48.293Z,799.07
2018-05-08T00:34:52.501Z,799.1
2018-05-08T00:34:56.608Z,799.11
2018-05-08T00:35:00.933Z,799.01
2018-05-08T00:35:05.147Z,799.1
2018-05-08T00:35:09.361Z,799.09
2018-05-08T00:35:13.563Z,799.05
2018-05-08T00:35:17.774Z,799.1
2018-05-08T00:35:22.086Z,799.07
2018-05-08T00:35:26.401Z,799.06
2018-05-08T00:35:30.608Z,799.06
2018-05-08T00:35:34.705Z,799.07
2018-05-08T00:35:38.910Z,799.1
2018-05-08T00:35:43.322Z,799.11
2018-05-08T00:35:47.647Z,799.08
2018-05-08T00:35:51.755Z,799.07
2018-05-08T00:35:56.168Z,799.04
2018-05-08T00:36:00.374Z,799.01
2018-05-08T00:36:04.699Z,799.05
2018-05-08T00:36:08.911Z,799.02
2018-05-08T00:36:13.116Z,799.05
2018-05-08T00:36:17.435Z,799.06
2018-05-08T00:36:21.644Z,798.99
2018-05-08T00:36:25.852Z,798.99
2018-05-08T00:36:30.057Z,799.02
2018-05-08T00:36:34.374Z,798.99
2018-05-08T00:36:38.699Z,799.06
2018-05-08T00:36:43.019Z,799.04
2018-05-08T00:36:47.015Z,799.04
2018-05-08T00:36:51.336Z,799.05
2018-05-08T00:36:55.439Z,799.02
2018-05-08T00:36:59.650Z,799.02
2018-05-08T00:37:03.751Z,799
2018-05-08T00:37:07.957Z,799.01
2018-05-08T00:37:12.285Z,798.99
2018-05-08T00:37:16.596Z,799.02
2018-05-08T00:37:20.696Z,799
2018-05-08T00:37:24.927Z,799.01
2018-05-08T00:37:29.140Z,799.01
2018-05-08T00:37:33.465Z,799.02
2018-05-08T00:37:37.789Z,799.01
2018-05-08T00:37:42.003Z,798.97
2018-05-08T00:37:46.108Z,798.98
2018-05-08T00:37:50.438Z,798.99
2018-05-08T00:37:54.755Z,798.95
2018-05-08T00:37:59.073Z,798.97
2018-05-08T00:38:03.280Z,798.93
2018-05-08T00:38:07.485Z,798.98
2018-05-08T00:38:11.693Z,798.99
2018-05-08T00:38:15.912Z,799
2018-05-08T00:38:20.116Z,798.98
2018-05-08T00:38:24.220Z,798.97
2018-05-08T00:38:28.533Z,798.97
2018-05-08T00:38:32.791Z,798.97
2018-05-08T00:38:37.007Z,799
2018-05-08T00:38:41.318Z,799.01
2018-05-08T00:38:45.536Z,798.94
2018-05-08T00:38:49.739Z,798.99
2018-05-08T00:38:54.057Z,798.98
2018-05-08T00:38:58.265Z,799.01
2018-05-08T00:39:02.473Z,799.01
2018-05-08T00:39:06.571Z,798.98
2018-05-08T00:39:10.775Z,798.99
2018-05-08T00:39:15.098Z,799.02
2018-05-08T00:39:19.449Z,799.01
2018-05-08T00:39:23.769Z,799
2018-05-08T00:39:27.988Z,798.98
2018-05-08T00:39:32.309Z,798.99
2018-05-08T00:39:36.301Z,798.94
2018-05-08T00:39:40.614Z,798.94
2018-05-08T00:39:44.827Z,798.96
2018-05-08T00:39:49.150Z,798.97
2018-05-08T00:39:53.356Z,799.01
2018-05-08T00:39:57.568Z,799.02
2018-05-08T00:40:01.979Z,799.01
2018-05-08T00:40:06.196Z,798.99
2018-05-08T00:40:10.526Z,798.99
2018-05-08T00:40:14.628Z,799
2018-05-08T00:40:18.839Z,798.95
2018-05-08T00:40:23.154Z,798.97
2018-05-08T00:40:27.549Z,798.97
2018-05-08T00:40:31.767Z,798.98
2018-05-08T00:40:35.974Z,798.97
2018-05-08T00:40:40.191Z,799.01
2018-05-08T00:40:44.396Z,799.03
2018-05-08T00:40:48.496Z,799.03
2018-05-08T00:40:52.816Z,799.08
2018-05-08T00:40:57.051Z,799.02
2018-05-08T00:41:01.166Z,799.03
2018-05-08T00:41:05.176Z,799.03
2018-05-08T00:41:09.174Z,799.01
2018-05-08T00:41:13.381Z,799.06
2018-05-08T00:41:17.697Z,799.03
2018-05-08T00:41:21.903Z,799.02
2018-05-08T00:41:26.122Z,799.02
2018-05-08T00:41:30.132Z,799.04
2018-05-08T00:41:34.121Z,799.02
2018-05-08T00:41:38.442Z,799.04
2018-05-08T00:41:42.658Z,798.99
2018-05-08T00:41:46.971Z,799.03
2018-05-08T00:41:50.990Z,799.03
2018-05-08T00:41:55.204Z,799.04
2018-05-08T00:41:59.534Z,799.02
2018-05-08T00:42:03.956Z,799.02
2018-05-08T00:42:08.172Z,799.04
2018-05-08T00:42:12.385Z,799.02
2018-05-08T00:42:16.702Z,799.03
2018-05-08T00:42:20.909Z,799.05
2018-05-08T00:42:25.114Z,799.04
2018-05-08T00:42:29.105Z,799.05
2018-05-08T00:42:33.417Z,799.07
2018-05-08T00:42:37.732Z,799.06
2018-05-08T00:42:42.047Z,799.06
2018-05-08T00:42:46.268Z,799.03
2018-05-08T00:42:50.482Z,799.05
2018-05-08T00:42:54.804Z,799.03
2018-05-08T00:42:59.133Z,799.06
2018-05-08T00:43:03.232Z,799.05
2018-05-08T00:43:07.337Z,799.04
2018-05-08T00:43:11.549Z,799.05
2018-05-08T00:43:15.571Z,798.99
2018-05-08T00:43:19.892Z,799.04
2018-05-08T00:43:24.218Z,799.07
2018-05-08T00:43:28.533Z,799.03
2018-05-08T00:43:32.849Z,799.03
2018-05-08T00:43:37.162Z,799.03
2018-05-08T00:43:41.504Z,799.04
2018-05-08T00:43:45.494Z,799.02
2018-05-08T00:43:49.593Z,798.99
2018-05-08T00:43:53.799Z,799.04
2018-05-08T00:43:58.002Z,799.05
2018-05-08T00:44:02.212Z,799.05
2018-05-08T00:44:06.314Z,799.04
2018-05-08T00:44:10.527Z,799.05
2018-05-08T00:44:14.633Z,799.06
2018-05-08T00:44:18.737Z,799.05
2018-05-08T00:44:23.049Z,799.07
2018-05-08T00:44:26.934Z,799.07
2018-05-08T00:44:31.148Z,799.09
2018-05-08T00:44:35.245Z,799.07
2018-05-08T00:44:39.474Z,799.07
2018-05-08T00:44:43.785Z,799.09
2018-05-08T00:44:48.006Z,799.06
2018-05-08T00:44:52.122Z,799.09
2018-05-08T00:44:56.330Z,799.07
2018-05-08T00:45:00.538Z,799.09
2018-05-08T00:45:04.645Z,799.1
2018-05-08T00:45:08.852Z,799.07
2018-05-08T00:45:13.062Z,799.06
2018-05-08T00:45:17.178Z,799.05
2018-05-08T00:45:21.384Z,799.06
2018-05-08T00:45:25.699Z,799.05
2018-05-08T00:45:29.698Z,799.05
2018-05-08T00:45:33.908Z,799.06
2018-05-08T00:45:38.118Z,799.05
2018-05-08T00:45:42.436Z,799.09
2018-05-08T00:45:46.648Z,799.05
2018-05-08T00:45:50.864Z,799.07
2018-05-08T00:45:55.083Z,799.06
2018-05-08T00:45:59.197Z,799.03
2018-05-08T00:46:03.309Z,799.04
2018-05-08T00:46:07.529Z,799.05
2018-05-08T00:46:11.520Z,799.03
2018-05-08T00:46:15.837Z,799.09
2018-05-08T00:46:20.045Z,799.06
2018-05-08T00:46:24.255Z,799.06
2018-05-08T00:46:28.351Z,799.07
2018-05-08T00:46:32.555Z,799.08
2018-05-08T00:46:36.878Z,799.03
2018-05-08T00:46:41.187Z,799.08
2018-05-08T00:46:45.401Z,799.05
2018-05-08T00:46:49.616Z,799.1
2018-05-08T00:46:53.937Z,799.07
2018-05-08T00:46:58.255Z,799.08
2018-05-08T00:47:02.577Z,799.07
2018-05-08T00:47:06.677Z,799.05
2018-05-08T00:47:10.998Z,799.09
2018-05-08T00:47:15.207Z,799.08
2018-05-08T00:47:19.303Z,799.07
2018-05-08T00:47:23.414Z,799.08
2018-05-08T00:47:27.620Z,799.05
2018-05-08T00:47:31.946Z,799.08
2018-05-08T00:47:36.047Z,799.07
2018-05-08T00:47:40.321Z,799.06
2018-05-08T00:47:44.631Z,799.07
2018-05-08T00:47:48.844Z,799.06
2018-05-08T00:47:53.197Z,799.01
2018-05-08T00:47:57.418Z,799.03
2018-05-08T00:48:01.623Z,799.02
2018-05-08T00:48:05.719Z,799.04
2018-05-08T00:48:09.719Z,799.07
2018-05-08T00:48:13.825Z,799.04
2018-05-08T00:48:17.925Z,799.04
2018-05-08T00:48:21.915Z,799.04
2018-05-08T00:48:26.120Z,799.04
2018-05-08T00:48:30.339Z,799.04
2018-05-08T00:48:34.548Z,799.03
2018-05-08T00:48:38.932Z,799
2018-05-08T00:48:43.242Z,799.03
2018-05-08T00:48:47.565Z,799.01
2018-05-08T00:48:51.774Z,799.02
2018-05-08T00:48:55.978Z,799.03
2018-05-08T00:49:00.290Z,799.04
2018-05-08T00:49:04.388Z,799.01
2018-05-08T00:49:08.602Z,799.01
2018-05-08T00:49:12.704Z,799
2018-05-08T00:49:16.911Z,798.99
2018-05-08T00:49:21.012Z,798.99
2018-05-08T00:49:25.007Z,798.98
2018-05-08T00:49:28.995Z,799
2018-05-08T00:49:33.323Z,798.98
2018-05-08T00:49:37.532Z,799.02
2018-05-08T00:49:41.747Z,799.01
2018-05-08T00:49:45.733Z,798.98
2018-05-08T00:49:49.941Z,798.96
2018-05-08T00:49:54.153Z,798.99
2018-05-08T00:49:58.359Z,799
2018-05-08T00:50:02.579Z,799
2018-05-08T00:50:06.896Z,798.98
2018-05-08T00:50:11.122Z,799
2018-05-08T00:50:15.344Z,798.97
2018-05-08T00:50:19.446Z,798.97
2018-05-08T00:50:23.330Z,798.97
2018-05-08T00:50:27.536Z,798.92
2018-05-08T00:50:31.741Z,798.96
2018-05-08T00:50:35.947Z,798.92
2018-05-08T00:50:40.274Z,798.97
2018-05-08T00:50:44.376Z,798.95
2018-05-08T00:50:48.481Z,798.96
2018-05-08T00:50:52.686Z,798.94
2018-05-08T00:50:56.897Z,798.93
2018-05-08T00:51:01.233Z,798.9
2018-05-08T00:51:05.557Z,798.89
2018-05-08T00:51:09.652Z,798.91
2018-05-08T00:51:13.885Z,798.89
2018-05-08T00:51:17.997Z,798.92
2018-05-08T00:51:22.309Z,798.91
2018-05-08T00:51:26.523Z,798.9
2018-05-08T00:51:30.408Z,798.89
2018-05-08T00:51:34.729Z,798.88
2018-05-08T00:51:38.940Z,798.89
2018-05-08T00:51:43.257Z,798.87
2018-05-08T00:51:47.366Z,798.84
2018-05-08T00:51:51.681Z,798.86
2018-05-08T00:51:55.996Z,798.88
2018-05-08T00:52:00.308Z,798.89
2018-05-08T00:52:04.465Z,798.89
2018-05-08T00:52:08.570Z,798.87
2018-05-08T00:52:12.882Z,798.81
2018-05-08T00:52:17.204Z,798.83
2018-05-08T00:52:21.414Z,798.88
2018-05-08T00:52:25.727Z,798.84
2018-05-08T00:52:30.043Z,798.82
2018-05-08T00:52:34.146Z,798.8
2018-05-08T00:52:38.356Z,798.77
2018-05-08T00:52:42.681Z,798.83
2018-05-08T00:52:46.998Z,798.82